sensor_id;sensor_type;location;lat;lon;timestamp;pressure;altitude;pressure_sealevel;temperature;humidity
18784;BME280;9520;50.954;6.968;2023-02-18T00:00:17;101758.31;;;18.45;49.91
18784;BME280;9520;50.954;6.968;2023-02-18T00:00:40;101762.84;;;18.43;50.03
18784;BME280;9520;50.954;6.968;2023-02-18T00:01:07;101762.75;;;18.46;49.91
18784;BME280;9520;50.954;6.968;2023-02-18T00:01:29;101756.47;;;18.47;49.89
18784;BME280;9520;50.954;6.968;2023-02-18T00:01:52;101752.34;;;18.37;49.97
18784;BME280;9520;50.954;6.968;2023-02-18T00:02:15;101761.53;;;18.27;50.21
18784;BME280;9520;50.954;6.968;2023-02-18T00:02:37;101757.94;;;18.30;50.36
18784;BME280;9520;50.954;6.968;2023-02-18T00:02:59;101753.31;;;18.35;50.15
18784;BME280;9520;50.954;6.968;2023-02-18T00:03:22;101754.97;;;18.39;50.29
18784;BME280;9520;50.954;6.968;2023-02-18T00:03:44;101752.16;;;18.43;50.12
18784;BME280;9520;50.954;6.968;2023-02-18T00:04:06;101760.00;;;18.49;49.93
18784;BME280;9520;50.954;6.968;2023-02-18T00:04:28;101758.19;;;18.50;49.78
18784;BME280;9520;50.954;6.968;2023-02-18T00:04:50;101757.22;;;18.52;49.82
18784;BME280;9520;50.954;6.968;2023-02-18T00:05:15;101753.56;;;18.57;49.72
18784;BME280;9520;50.954;6.968;2023-02-18T00:05:37;101757.09;;;18.57;49.59
18784;BME280;9520;50.954;6.968;2023-02-18T00:05:58;101755.22;;;18.61;49.42
18784;BME280;9520;50.954;6.968;2023-02-18T00:06:24;101761.41;;;18.63;49.39
18784;BME280;9520;50.954;6.968;2023-02-18T00:06:46;101756.97;;;18.62;49.55
18784;BME280;9520;50.954;6.968;2023-02-18T00:07:09;101755.13;;;18.64;49.42
18784;BME280;9520;50.954;6.968;2023-02-18T00:07:33;101747.03;;;18.65;49.49
18784;BME280;9520;50.954;6.968;2023-02-18T00:07:54;101743.13;;;18.47;49.38
18784;BME280;9520;50.954;6.968;2023-02-18T00:08:16;101755.53;;;18.50;49.87
18784;BME280;9520;50.954;6.968;2023-02-18T00:08:39;101754.78;;;18.45;49.88
18784;BME280;9520;50.954;6.968;2023-02-18T00:09:02;101759.56;;;18.34;49.97
18784;BME280;9520;50.954;6.968;2023-02-18T00:09:24;101762.00;;;18.12;50.60
18784;BME280;9520;50.954;6.968;2023-02-18T00:09:47;101764.47;;;18.20;50.45
18784;BME280;9520;50.954;6.968;2023-02-18T00:10:11;101755.22;;;18.00;50.75
18784;BME280;9520;50.954;6.968;2023-02-18T00:10:33;101756.03;;;18.02;50.97
18784;BME280;9520;50.954;6.968;2023-02-18T00:10:55;101755.34;;;17.96;51.05
18784;BME280;9520;50.954;6.968;2023-02-18T00:11:19;101750.19;;;17.90;51.26
18784;BME280;9520;50.954;6.968;2023-02-18T00:11:42;101747.31;;;17.96;51.33
18784;BME280;9520;50.954;6.968;2023-02-18T00:12:05;101749.78;;;18.03;51.02
18784;BME280;9520;50.954;6.968;2023-02-18T00:12:26;101755.00;;;18.08;51.00
18784;BME280;9520;50.954;6.968;2023-02-18T00:12:50;101751.28;;;18.13;50.98
18784;BME280;9520;50.954;6.968;2023-02-18T00:13:12;101753.78;;;18.20;50.64
18784;BME280;9520;50.954;6.968;2023-02-18T00:13:34;101749.22;;;18.23;50.57
18784;BME280;9520;50.954;6.968;2023-02-18T00:13:59;101744.59;;;18.28;50.59
18784;BME280;9520;50.954;6.968;2023-02-18T00:14:22;101755.16;;;18.33;50.37
18784;BME280;9520;50.954;6.968;2023-02-18T00:14:45;101749.78;;;18.34;50.44
18784;BME280;9520;50.954;6.968;2023-02-18T00:15:08;101740.91;;;18.32;50.24
18784;BME280;9520;50.954;6.968;2023-02-18T00:15:30;101739.03;;;18.36;50.26
18784;BME280;9520;50.954;6.968;2023-02-18T00:15:51;101745.19;;;18.38;50.07
18784;BME280;9520;50.954;6.968;2023-02-18T00:16:15;101745.94;;;18.43;50.14
18784;BME280;9520;50.954;6.968;2023-02-18T00:16:37;101752.97;;;18.45;50.05
18784;BME280;9520;50.954;6.968;2023-02-18T00:17:01;101744.00;;;18.48;49.89
18784;BME280;9520;50.954;6.968;2023-02-18T00:17:24;101751.88;;;18.52;49.76
18784;BME280;9520;50.954;6.968;2023-02-18T00:17:46;101736.72;;;18.54;49.84
18784;BME280;9520;50.954;6.968;2023-02-18T00:18:08;101745.69;;;18.50;49.84
18784;BME280;9520;50.954;6.968;2023-02-18T00:18:31;101748.75;;;18.38;49.93
18784;BME280;9520;50.954;6.968;2023-02-18T00:18:54;101742.03;;;18.25;50.30
18784;BME280;9520;50.954;6.968;2023-02-18T00:19:18;101742.88;;;18.26;50.38
18784;BME280;9520;50.954;6.968;2023-02-18T00:19:40;101746.53;;;18.23;50.54
18784;BME280;9520;50.954;6.968;2023-02-18T00:20:05;101736.59;;;18.28;50.31
18784;BME280;9520;50.954;6.968;2023-02-18T00:20:27;101744.56;;;18.30;50.27
18784;BME280;9520;50.954;6.968;2023-02-18T00:20:50;101741.38;;;18.17;50.66
18784;BME280;9520;50.954;6.968;2023-02-18T00:21:12;101743.00;;;18.23;50.62
18784;BME280;9520;50.954;6.968;2023-02-18T00:21:34;101739.31;;;18.27;50.37
18784;BME280;9520;50.954;6.968;2023-02-18T00:21:57;101745.44;;;18.30;50.34
18784;BME280;9520;50.954;6.968;2023-02-18T00:22:20;101744.50;;;18.31;50.35
18784;BME280;9520;50.954;6.968;2023-02-18T00:22:42;101739.09;;;18.34;50.44
18784;BME280;9520;50.954;6.968;2023-02-18T00:23:04;101742.56;;;18.36;50.23
18784;BME280;9520;50.954;6.968;2023-02-18T00:23:26;101740.88;;;18.34;50.43
18784;BME280;9520;50.954;6.968;2023-02-18T00:23:48;101737.38;;;18.32;50.40
18784;BME280;9520;50.954;6.968;2023-02-18T00:24:12;101746.88;;;18.40;50.09
18784;BME280;9520;50.954;6.968;2023-02-18T00:24:35;101736.28;;;18.39;50.21
18784;BME280;9520;50.954;6.968;2023-02-18T00:24:58;101744.19;;;18.42;49.98
18784;BME280;9520;50.954;6.968;2023-02-18T00:25:19;101732.03;;;18.32;50.22
18784;BME280;9520;50.954;6.968;2023-02-18T00:25:41;101746.09;;;18.38;50.06
18784;BME280;9520;50.954;6.968;2023-02-18T00:26:06;101731.75;;;18.41;50.05
18784;BME280;9520;50.954;6.968;2023-02-18T00:26:29;101747.63;;;18.45;50.21
18784;BME280;9520;50.954;6.968;2023-02-18T00:26:51;101740.41;;;18.49;50.01
18784;BME280;9520;50.954;6.968;2023-02-18T00:27:14;101751.00;;;18.52;50.16
18784;BME280;9520;50.954;6.968;2023-02-18T00:27:36;101741.47;;;18.43;49.86
18784;BME280;9520;50.954;6.968;2023-02-18T00:27:58;101737.03;;;18.42;50.03
18784;BME280;9520;50.954;6.968;2023-02-18T00:28:20;101737.00;;;18.44;49.90
18784;BME280;9520;50.954;6.968;2023-02-18T00:28:42;101736.13;;;18.43;49.94
18784;BME280;9520;50.954;6.968;2023-02-18T00:29:07;101740.41;;;18.49;49.89
18784;BME280;9520;50.954;6.968;2023-02-18T00:29:30;101738.56;;;18.51;49.76
18784;BME280;9520;50.954;6.968;2023-02-18T00:29:52;101736.72;;;18.54;49.68
18784;BME280;9520;50.954;6.968;2023-02-18T00:30:16;101736.72;;;18.54;49.84
18784;BME280;9520;50.954;6.968;2023-02-18T00:30:39;101739.31;;;18.56;49.80
18784;BME280;9520;50.954;6.968;2023-02-18T00:31:05;101746.31;;;18.60;49.65
18784;BME280;9520;50.954;6.968;2023-02-18T00:31:29;101739.13;;;18.62;49.69
18784;BME280;9520;50.954;6.968;2023-02-18T00:31:52;101745.31;;;18.64;49.58
18784;BME280;9520;50.954;6.968;2023-02-18T00:32:16;101741.66;;;18.67;49.50
18784;BME280;9520;50.954;6.968;2023-02-18T00:32:39;101751.44;;;18.68;49.42
18784;BME280;9520;50.954;6.968;2023-02-18T00:33:02;101743.44;;;18.66;49.44
18784;BME280;9520;50.954;6.968;2023-02-18T00:33:24;101741.66;;;18.67;49.30
18784;BME280;9520;50.954;6.968;2023-02-18T00:33:48;101739.13;;;18.62;49.56
18784;BME280;9520;50.954;6.968;2023-02-18T00:34:10;101740.91;;;18.63;49.34
18784;BME280;9520;50.954;6.968;2023-02-18T00:34:33;101738.22;;;18.63;49.37
18784;BME280;9520;50.954;6.968;2023-02-18T00:34:57;101739.97;;;18.64;49.58
18784;BME280;9520;50.954;6.968;2023-02-18T00:35:20;101742.66;;;18.64;49.45
18784;BME280;9520;50.954;6.968;2023-02-18T00:35:44;101738.50;;;18.54;49.83
18784;BME280;9520;50.954;6.968;2023-02-18T00:36:10;101748.31;;;18.53;49.77
18784;BME280;9520;50.954;6.968;2023-02-18T00:36:33;101741.13;;;18.55;49.61
18784;BME280;9520;50.954;6.968;2023-02-18T00:36:56;101741.03;;;18.59;49.57
18784;BME280;9520;50.954;6.968;2023-02-18T00:37:19;101742.69;;;18.63;49.52
18784;BME280;9520;50.954;6.968;2023-02-18T00:37:41;101739.44;;;18.51;49.60
18784;BME280;9520;50.954;6.968;2023-02-18T00:38:04;101735.78;;;18.55;49.59
18784;BME280;9520;50.954;6.968;2023-02-18T00:38:27;101739.28;;;18.58;49.80
18784;BME280;9520;50.954;6.968;2023-02-18T00:38:58;101731.25;;;18.58;49.74
18784;BME280;9520;50.954;6.968;2023-02-18T00:39:23;101737.38;;;18.61;49.86
18784;BME280;9520;50.954;6.968;2023-02-18T00:39:48;101733.16;;;18.54;49.76
18784;BME280;9520;50.954;6.968;2023-02-18T00:40:16;101724.59;;;18.41;49.94
18784;BME280;9520;50.954;6.968;2023-02-18T00:41:04;101723.28;;;18.27;50.27
18784;BME280;9520;50.954;6.968;2023-02-18T00:41:34;101720.38;;;18.34;50.33
18784;BME280;9520;50.954;6.968;2023-02-18T00:42:34;101717.19;;;18.22;50.45
18784;BME280;9520;50.954;6.968;2023-02-18T00:43:03;101712.31;;;18.06;50.95
18784;BME280;9520;50.954;6.968;2023-02-18T00:43:26;101707.19;;;18.00;50.80
18784;BME280;9520;50.954;6.968;2023-02-18T00:43:56;101712.38;;;18.05;51.10
18784;BME280;9520;50.954;6.968;2023-02-18T00:44:26;101710.50;;;18.07;50.84
18784;BME280;9520;50.954;6.968;2023-02-18T00:44:53;101714.91;;;18.09;51.07
18784;BME280;9520;50.954;6.968;2023-02-18T00:45:23;101712.09;;;18.14;50.93
18784;BME280;9520;50.954;6.968;2023-02-18T00:45:49;101710.47;;;18.08;50.97
18784;BME280;9520;50.954;6.968;2023-02-18T00:46:18;101706.16;;;18.04;50.99
18784;BME280;9520;50.954;6.968;2023-02-18T00:46:43;101704.28;;;18.06;50.91
18784;BME280;9520;50.954;6.968;2023-02-18T00:47:10;101709.56;;;18.09;50.85
18784;BME280;9520;50.954;6.968;2023-02-18T00:47:37;101711.13;;;18.17;50.84
18784;BME280;9520;50.954;6.968;2023-02-18T00:48:00;101711.81;;;18.23;50.63
18784;BME280;9520;50.954;6.968;2023-02-18T00:48:22;101704.50;;;18.30;50.53
18784;BME280;9520;50.954;6.968;2023-02-18T00:48:57;101707.06;;;18.33;50.52
18784;BME280;9520;50.954;6.968;2023-02-18T00:49:26;101711.56;;;18.31;50.55
18784;BME280;9520;50.954;6.968;2023-02-18T00:49:48;101709.16;;;18.23;50.47
18784;BME280;9520;50.954;6.968;2023-02-18T00:50:18;101719.66;;;18.29;50.62
18784;BME280;9520;50.954;6.968;2023-02-18T00:50:45;101704.56;;;18.27;50.55
18784;BME280;9520;50.954;6.968;2023-02-18T00:51:10;101698.22;;;18.31;50.49
18784;BME280;9520;50.954;6.968;2023-02-18T00:51:38;101696.56;;;18.27;50.32
18784;BME280;9520;50.954;6.968;2023-02-18T00:52:01;101710.50;;;18.36;50.45
18784;BME280;9520;50.954;6.968;2023-02-18T00:52:30;101706.03;;;18.37;50.31
18784;BME280;9520;50.954;6.968;2023-02-18T00:52:55;101699.91;;;18.35;50.12
18784;BME280;9520;50.954;6.968;2023-02-18T00:53:24;101705.50;;;18.26;50.39
18784;BME280;9520;50.954;6.968;2023-02-18T00:53:55;101708.16;;;18.26;50.46
18784;BME280;9520;50.954;6.968;2023-02-18T00:54:23;101705.41;;;18.29;50.42
18784;BME280;9520;50.954;6.968;2023-02-18T00:55:14;101707.34;;;18.24;50.50
18784;BME280;9520;50.954;6.968;2023-02-18T00:55:43;101711.69;;;18.28;50.31
18784;BME280;9520;50.954;6.968;2023-02-18T00:56:09;101722.31;;;18.29;50.34
18784;BME280;9520;50.954;6.968;2023-02-18T00:56:42;101711.34;;;18.09;50.65
18784;BME280;9520;50.954;6.968;2023-02-18T00:57:21;101716.84;;;18.04;51.00
18784;BME280;9520;50.954;6.968;2023-02-18T00:57:52;101708.03;;;18.01;51.20
18784;BME280;9520;50.954;6.968;2023-02-18T00:58:26;101706.09;;;18.06;51.02
18784;BME280;9520;50.954;6.968;2023-02-18T00:58:55;101691.09;;;18.02;50.92
18784;BME280;9520;50.954;6.968;2023-02-18T00:59:33;101708.75;;;18.06;50.90
18784;BME280;9520;50.954;6.968;2023-02-18T01:00:23;101704.28;;;18.06;50.96
18784;BME280;9520;50.954;6.968;2023-02-18T01:00:50;101711.03;;;17.90;51.11
18784;BME280;9520;50.954;6.968;2023-02-18T01:01:17;101707.41;;;17.91;51.12
18784;BME280;9520;50.954;6.968;2023-02-18T01:01:44;101712.63;;;17.96;51.28
18784;BME280;9520;50.954;6.968;2023-02-18T01:02:11;101705.31;;;18.02;51.27
18784;BME280;9520;50.954;6.968;2023-02-18T01:02:49;101702.88;;;17.95;51.23
18784;BME280;9520;50.954;6.968;2023-02-18T01:03:29;101702.00;;;17.94;51.42
18784;BME280;9520;50.954;6.968;2023-02-18T01:04:30;101697.91;;;17.81;51.72
18784;BME280;9520;50.954;6.968;2023-02-18T01:06:13;101709.28;;;17.89;51.47
18784;BME280;9520;50.954;6.968;2023-02-18T01:07:13;101687.41;;;18.06;51.07
18784;BME280;9520;50.954;6.968;2023-02-18T01:08:06;101685.84;;;17.99;50.85
18784;BME280;9520;50.954;6.968;2023-02-18T01:09:05;101696.28;;;18.06;50.90
18784;BME280;9520;50.954;6.968;2023-02-18T01:09:59;101692.41;;;18.17;50.73
18784;BME280;9520;50.954;6.968;2023-02-18T01:10:29;101698.28;;;18.00;51.06
18784;BME280;9520;50.954;6.968;2023-02-18T01:11:31;101694.63;;;18.02;51.22
18784;BME280;9520;50.954;6.968;2023-02-18T01:13:36;101691.09;;;18.02;51.03
18784;BME280;9520;50.954;6.968;2023-02-18T01:15:41;101692.75;;;18.06;50.91
18784;BME280;9520;50.954;6.968;2023-02-18T01:17:19;101680.88;;;18.16;50.65
18784;BME280;9520;50.954;6.968;2023-02-18T01:18:24;101686.44;;;18.08;50.76
18784;BME280;9520;50.954;6.968;2023-02-18T01:21:47;101700.50;;;18.15;50.54
18784;BME280;9520;50.954;6.968;2023-02-18T01:25:17;101686.06;;;18.21;50.40
18784;BME280;9520;50.954;6.968;2023-02-18T01:26:19;101685.13;;;18.23;50.31
18784;BME280;9520;50.954;6.968;2023-02-18T01:27:48;101695.66;;;18.28;50.26
18784;BME280;9520;50.954;6.968;2023-02-18T01:29:00;101694.56;;;18.35;50.18
18784;BME280;9520;50.954;6.968;2023-02-18T01:29:31;101692.66;;;18.38;50.20
18784;BME280;9520;50.954;6.968;2023-02-18T01:31:07;101696.28;;;18.36;50.18
18784;BME280;9520;50.954;6.968;2023-02-18T01:31:53;101690.84;;;18.39;50.03
18784;BME280;9520;50.954;6.968;2023-02-18T01:32:56;101695.94;;;18.46;49.95
18784;BME280;9520;50.954;6.968;2023-02-18T01:34:05;101689.69;;;18.47;49.70
18784;BME280;9520;50.954;6.968;2023-02-18T01:34:59;101680.59;;;18.53;49.50
18784;BME280;9520;50.954;6.968;2023-02-18T01:36:08;101683.28;;;18.54;49.62
18784;BME280;9520;50.954;6.968;2023-02-18T01:37:37;101676.28;;;18.49;49.62
18784;BME280;9520;50.954;6.968;2023-02-18T01:38:08;101669.22;;;18.46;49.65
18784;BME280;9520;50.954;6.968;2023-02-18T01:38:30;101678.09;;;18.48;49.55
18784;BME280;9520;50.954;6.968;2023-02-18T01:38:53;101678.03;;;18.50;49.63
18784;BME280;9520;50.954;6.968;2023-02-18T01:39:15;101673.50;;;18.52;49.54
18784;BME280;9520;50.954;6.968;2023-02-18T01:39:38;101673.69;;;18.46;49.58
18784;BME280;9520;50.954;6.968;2023-02-18T01:40:00;101673.69;;;18.46;49.60
18784;BME280;9520;50.954;6.968;2023-02-18T01:40:26;101667.41;;;18.48;49.62
18784;BME280;9520;50.954;6.968;2023-02-18T01:40:50;101675.38;;;18.50;49.50
18784;BME280;9520;50.954;6.968;2023-02-18T01:41:15;101677.09;;;18.51;49.64
18784;BME280;9520;50.954;6.968;2023-02-18T01:42:33;101679.00;;;18.47;49.77
18784;BME280;9520;50.954;6.968;2023-02-18T01:42:56;101671.75;;;18.51;49.59
18784;BME280;9520;50.954;6.968;2023-02-18T01:43:19;101678.97;;;18.49;49.54
18784;BME280;9520;50.954;6.968;2023-02-18T01:43:42;101671.72;;;18.52;49.63
18784;BME280;9520;50.954;6.968;2023-02-18T01:44:13;101675.25;;;18.54;49.51
18784;BME280;9520;50.954;6.968;2023-02-18T01:44:39;101681.38;;;18.58;49.38
18784;BME280;9520;50.954;6.968;2023-02-18T01:45:47;101675.88;;;18.63;49.54
18784;BME280;9520;50.954;6.968;2023-02-18T01:46:14;101682.88;;;18.67;49.28
18784;BME280;9520;50.954;6.968;2023-02-18T01:46:39;101678.41;;;18.67;49.25
18784;BME280;9520;50.954;6.968;2023-02-18T01:47:01;101681.19;;;18.64;49.25
18784;BME280;9520;50.954;6.968;2023-02-18T01:47:23;101678.53;;;18.63;49.23
18784;BME280;9520;50.954;6.968;2023-02-18T01:47:45;101676.75;;;18.63;49.21
18784;BME280;9520;50.954;6.968;2023-02-18T01:48:10;101674.97;;;18.64;49.29
18784;BME280;9520;50.954;6.968;2023-02-18T01:48:36;101674.53;;;18.48;49.44
18784;BME280;9520;50.954;6.968;2023-02-18T01:49:01;101672.88;;;18.44;49.66
18784;BME280;9520;50.954;6.968;2023-02-18T01:49:30;101681.09;;;18.38;49.81
18784;BME280;9520;50.954;6.968;2023-02-18T01:49:54;101669.78;;;18.30;49.94
18784;BME280;9520;50.954;6.968;2023-02-18T01:50:17;101678.78;;;18.26;50.02
18784;BME280;9520;50.954;6.968;2023-02-18T01:50:43;101675.19;;;18.27;50.07
18784;BME280;9520;50.954;6.968;2023-02-18T01:51:10;101667.88;;;18.33;50.11
18784;BME280;9520;50.954;6.968;2023-02-18T01:51:35;101672.19;;;18.37;50.09
18784;BME280;9520;50.954;6.968;2023-02-18T01:52:02;101675.94;;;18.32;49.96
18784;BME280;9520;50.954;6.968;2023-02-18T01:52:25;101656.56;;;18.25;50.10
18784;BME280;9520;50.954;6.968;2023-02-18T01:52:49;101670.44;;;18.36;49.92
18784;BME280;9520;50.954;6.968;2023-02-18T01:53:14;101674.91;;;18.36;49.97
18784;BME280;9520;50.954;6.968;2023-02-18T01:53:41;101668.66;;;18.37;50.04
18784;BME280;9520;50.954;6.968;2023-02-18T01:54:07;101672.00;;;18.43;49.83
18784;BME280;9520;50.954;6.968;2023-02-18T01:54:31;101680.78;;;18.47;49.81
18784;BME280;9520;50.954;6.968;2023-02-18T01:54:55;101664.72;;;18.48;49.73
18784;BME280;9520;50.954;6.968;2023-02-18T01:55:17;101675.19;;;18.56;49.70
18784;BME280;9520;50.954;6.968;2023-02-18T01:55:42;101674.22;;;18.59;49.49
18784;BME280;9520;50.954;6.968;2023-02-18T01:56:08;101668.09;;;18.55;49.35
18784;BME280;9520;50.954;6.968;2023-02-18T01:56:34;101681.53;;;18.53;49.59
18784;BME280;9520;50.954;6.968;2023-02-18T01:57:00;101668.94;;;18.57;49.69
18784;BME280;9520;50.954;6.968;2023-02-18T01:57:28;101664.41;;;18.59;49.50
18784;BME280;9520;50.954;6.968;2023-02-18T01:57:50;101657.31;;;18.58;49.42
18784;BME280;9520;50.954;6.968;2023-02-18T01:58:12;101666.88;;;18.65;49.42
18784;BME280;9520;50.954;6.968;2023-02-18T01:58:35;101665.88;;;18.69;49.34
18784;BME280;9520;50.954;6.968;2023-02-18T01:59:00;101665.78;;;18.71;49.35
18784;BME280;9520;50.954;6.968;2023-02-18T01:59:26;101663.09;;;18.72;49.27
18784;BME280;9520;50.954;6.968;2023-02-18T01:59:51;101655.09;;;18.71;49.16
18784;BME280;9520;50.954;6.968;2023-02-18T02:00:17;101665.03;;;18.67;49.31
18784;BME280;9520;50.954;6.968;2023-02-18T02:00:41;101651.56;;;18.70;49.21
18784;BME280;9520;50.954;6.968;2023-02-18T02:01:04;101669.34;;;18.71;49.38
18784;BME280;9520;50.954;6.968;2023-02-18T02:01:26;101654.50;;;18.63;49.28
18784;BME280;9520;50.954;6.968;2023-02-18T02:01:48;101665.28;;;18.60;49.40
18784;BME280;9520;50.954;6.968;2023-02-18T02:02:14;101658.13;;;18.60;49.40
18784;BME280;9520;50.954;6.968;2023-02-18T02:02:40;101646.72;;;18.55;49.47
18784;BME280;9520;50.954;6.968;2023-02-18T02:03:04;101654.59;;;18.60;49.52
18784;BME280;9520;50.954;6.968;2023-02-18T02:03:25;101657.47;;;18.53;49.56
18784;BME280;9520;50.954;6.968;2023-02-18T02:03:47;101649.44;;;18.53;49.56
18784;BME280;9520;50.954;6.968;2023-02-18T02:04:10;101652.91;;;18.57;49.62
18784;BME280;9520;50.954;6.968;2023-02-18T02:04:34;101658.09;;;18.62;49.53
18784;BME280;9520;50.954;6.968;2023-02-18T02:04:56;101656.41;;;18.59;49.62
18784;BME280;9520;50.954;6.968;2023-02-18T02:05:20;101650.44;;;18.49;49.79
18784;BME280;9520;50.954;6.968;2023-02-18T02:05:42;101655.09;;;18.43;49.77
18784;BME280;9520;50.954;6.968;2023-02-18T02:06:15;101655.97;;;18.43;49.86
18784;BME280;9520;50.954;6.968;2023-02-18T02:06:38;101656.75;;;18.47;49.86
18784;BME280;9520;50.954;6.968;2023-02-18T02:06:59;101648.66;;;18.50;49.89
18784;BME280;9520;50.954;6.968;2023-02-18T02:07:23;101657.47;;;18.53;49.87
18784;BME280;9520;50.954;6.968;2023-02-18T02:07:51;101660.00;;;18.58;49.79
18784;BME280;9520;50.954;6.968;2023-02-18T02:08:13;101656.31;;;18.61;49.71
18784;BME280;9520;50.954;6.968;2023-02-18T02:08:35;101654.53;;;18.61;49.62
18784;BME280;9520;50.954;6.968;2023-02-18T02:08:59;101655.34;;;18.65;49.67
18784;BME280;9520;50.954;6.968;2023-02-18T02:09:24;101652.66;;;18.65;49.59
18784;BME280;9520;50.954;6.968;2023-02-18T02:09:48;101655.34;;;18.65;49.47
18784;BME280;9520;50.954;6.968;2023-02-18T02:10:12;101654.44;;;18.64;49.55
18784;BME280;9520;50.954;6.968;2023-02-18T02:10:45;101650.81;;;18.65;49.82
18784;BME280;9520;50.954;6.968;2023-02-18T02:11:22;101650.03;;;18.63;49.55
18784;BME280;9520;50.954;6.968;2023-02-18T02:12:05;101655.38;;;18.63;49.54
18784;BME280;9520;50.954;6.968;2023-02-18T02:12:55;101647.31;;;18.65;49.62
18784;BME280;9520;50.954;6.968;2023-02-18T02:13:27;101643.75;;;18.64;49.64
18784;BME280;9520;50.954;6.968;2023-02-18T02:14:00;101646.44;;;18.64;49.63
18784;BME280;9520;50.954;6.968;2023-02-18T02:14:40;101645.88;;;18.53;49.81
18784;BME280;9520;50.954;6.968;2023-02-18T02:15:20;101643.84;;;18.33;50.37
18784;BME280;9520;50.954;6.968;2023-02-18T02:15:48;101635.25;;;18.24;50.61
18784;BME280;9520;50.954;6.968;2023-02-18T02:16:18;101647.56;;;18.28;50.69
18784;BME280;9520;50.954;6.968;2023-02-18T02:16:46;101642.19;;;18.29;50.63
18784;BME280;9520;50.954;6.968;2023-02-18T02:17:20;101637.59;;;18.34;50.52
18784;BME280;9520;50.954;6.968;2023-02-18T02:17:56;101635.56;;;18.41;50.51
18784;BME280;9520;50.954;6.968;2023-02-18T02:18:38;101636.28;;;18.46;50.30
18784;BME280;9520;50.954;6.968;2023-02-18T02:19:24;101635.69;;;18.38;50.57
18784;BME280;9520;50.954;6.968;2023-02-18T02:21:03;101629.41;;;18.39;50.39
18784;BME280;9520;50.954;6.968;2023-02-18T02:23:12;101638.06;;;18.19;51.22
18784;BME280;9520;50.954;6.968;2023-02-18T02:24:09;101635.97;;;18.29;50.91
18784;BME280;9520;50.954;6.968;2023-02-18T02:25:06;101627.38;;;18.19;51.26
18784;BME280;9520;50.954;6.968;2023-02-18T02:25:46;101634.41;;;18.22;51.04
18784;BME280;9520;50.954;6.968;2023-02-18T02:26:33;101635.06;;;18.30;50.93
18784;BME280;9520;50.954;6.968;2023-02-18T02:27:12;101626.94;;;18.33;51.00
18784;BME280;9520;50.954;6.968;2023-02-18T02:29:04;101633.78;;;18.41;50.69
18784;BME280;9520;50.954;6.968;2023-02-18T02:30:06;101635.47;;;18.44;50.68
18784;BME280;9520;50.954;6.968;2023-02-18T02:30:51;101629.25;;;18.43;50.56
18784;BME280;9520;50.954;6.968;2023-02-18T02:31:36;101639.06;;;18.43;50.44
18784;BME280;9520;50.954;6.968;2023-02-18T02:34:16;101624.00;;;18.40;50.45
18784;BME280;9520;50.954;6.968;2023-02-18T02:34:49;101618.00;;;18.34;50.77
18784;BME280;9520;50.954;6.968;2023-02-18T02:35:15;101625.88;;;18.38;50.68
18784;BME280;9520;50.954;6.968;2023-02-18T02:35:41;101625.00;;;18.38;50.65
18784;BME280;9520;50.954;6.968;2023-02-18T02:36:08;101619.84;;;18.32;50.86
18784;BME280;9520;50.954;6.968;2023-02-18T02:36:39;101615.47;;;18.29;50.68
18784;BME280;9520;50.954;6.968;2023-02-18T02:37:09;101621.47;;;18.36;50.61
18784;BME280;9520;50.954;6.968;2023-02-18T02:37:39;101619.75;;;18.35;50.77
18784;BME280;9520;50.954;6.968;2023-02-18T02:38:05;101617.00;;;18.36;50.78
18784;BME280;9520;50.954;6.968;2023-02-18T02:38:33;101618.72;;;18.39;50.83
18784;BME280;9520;50.954;6.968;2023-02-18T02:39:05;101622.22;;;18.41;50.70
18784;BME280;9520;50.954;6.968;2023-02-18T02:39:37;101622.94;;;18.46;50.72
18784;BME280;9520;50.954;6.968;2023-02-18T02:40:12;101628.69;;;18.34;50.91
18784;BME280;9520;50.954;6.968;2023-02-18T02:40:41;101614.91;;;18.20;50.94
18784;BME280;9520;50.954;6.968;2023-02-18T02:41:17;101620.03;;;18.26;50.95
18784;BME280;9520;50.954;6.968;2023-02-18T02:41:49;101622.91;;;18.20;51.10
18784;BME280;9520;50.954;6.968;2023-02-18T02:42:20;101614.91;;;18.20;51.07
18784;BME280;9520;50.954;6.968;2023-02-18T02:42:47;101618.34;;;18.23;51.26
18784;BME280;9520;50.954;6.968;2023-02-18T02:43:18;101616.50;;;18.25;51.23
18784;BME280;9520;50.954;6.968;2023-02-18T02:43:50;101626.25;;;18.26;51.03
18784;BME280;9520;50.954;6.968;2023-02-18T02:44:19;101615.53;;;18.28;51.05
18784;BME280;9520;50.954;6.968;2023-02-18T02:44:46;101613.03;;;18.22;51.27
18784;BME280;9520;50.954;6.968;2023-02-18T02:45:18;101619.94;;;18.29;51.09
18784;BME280;9520;50.954;6.968;2023-02-18T02:45:50;101607.63;;;18.25;50.81
18784;BME280;9520;50.954;6.968;2023-02-18T02:46:18;101605.00;;;18.23;50.97
18784;BME280;9520;50.954;6.968;2023-02-18T02:46:46;101616.28;;;18.31;51.06
18784;BME280;9520;50.954;6.968;2023-02-18T02:47:13;101608.28;;;18.31;50.78
18784;BME280;9520;50.954;6.968;2023-02-18T02:47:43;101614.41;;;18.35;50.99
18784;BME280;9520;50.954;6.968;2023-02-18T02:48:11;101602.00;;;18.32;50.79
18784;BME280;9520;50.954;6.968;2023-02-18T02:48:41;101609.16;;;18.32;50.78
18784;BME280;9520;50.954;6.968;2023-02-18T02:49:13;101604.38;;;18.15;51.22
18784;BME280;9520;50.954;6.968;2023-02-18T02:49:47;101596.84;;;18.00;51.69
18784;BME280;9520;50.954;6.968;2023-02-18T02:50:14;101600.09;;;18.09;51.49
18784;BME280;9520;50.954;6.968;2023-02-18T02:50:44;101604.28;;;18.17;51.30
18784;BME280;9520;50.954;6.968;2023-02-18T02:51:11;101602.34;;;18.22;51.45
18784;BME280;9520;50.954;6.968;2023-02-18T02:51:37;101598.75;;;18.23;51.34
18784;BME280;9520;50.954;6.968;2023-02-18T02:52:05;101607.50;;;18.28;51.25
18784;BME280;9520;50.954;6.968;2023-02-18T02:52:31;101595.19;;;18.24;51.16
18784;BME280;9520;50.954;6.968;2023-02-18T02:52:57;101600.22;;;18.33;51.06
18784;BME280;9520;50.954;6.968;2023-02-18T02:53:22;101601.13;;;18.32;51.13
18784;BME280;9520;50.954;6.968;2023-02-18T02:53:46;101599.22;;;18.35;50.77